createdAt,value
2019-02-24T00:01:23.794Z,17.93
2019-02-24T00:03:54.723Z,16.50
2019-02-24T00:06:25.206Z,17.30
2019-02-24T00:08:55.242Z,18.20
2019-02-24T00:11:25.761Z,16.80
2019-02-24T00:13:56.025Z,17.07
2019-02-24T00:16:26.110Z,17.73
2019-02-24T00:18:56.346Z,18.97
2019-02-24T00:21:26.414Z,18.47
2019-02-24T00:23:56.884Z,19.93
2019-02-24T00:26:27.074Z,19.73
2019-02-24T00:28:57.456Z,19.87
2019-02-24T00:31:27.592Z,18.87
2019-02-24T00:33:57.725Z,17.17
2019-02-24T00:36:27.939Z,16.63
2019-02-24T00:38:58.167Z,16.80
2019-02-24T00:41:28.445Z,14.90
2019-02-24T00:43:59.518Z,15.40
2019-02-24T00:46:29.593Z,15.97
2019-02-24T00:48:59.606Z,18.97
2019-02-24T00:51:29.532Z,18.93
2019-02-24T00:53:59.885Z,17.17
2019-02-24T00:56:29.892Z,17.43
2019-02-24T00:59:00.508Z,20.47
2019-02-24T01:01:31.129Z,17.33
2019-02-24T01:04:01.192Z,17.50
2019-02-24T01:06:31.195Z,18.53
2019-02-24T01:09:01.210Z,20.17
2019-02-24T01:11:31.263Z,17.73
2019-02-24T01:14:01.149Z,16.07
2019-02-24T01:16:31.377Z,17.80
2019-02-24T01:19:01.461Z,18.73
2019-02-24T01:21:31.448Z,19.00
2019-02-24T01:24:01.706Z,18.47
2019-02-24T01:26:31.738Z,18.70
2019-02-24T01:29:02.160Z,19.43
2019-02-24T01:31:32.283Z,17.93
2019-02-24T01:34:02.433Z,17.50
2019-02-24T01:36:32.639Z,18.60
2019-02-24T01:39:02.631Z,18.47
2019-02-24T01:41:32.585Z,18.37
2019-02-24T01:44:02.858Z,19.10
2019-02-24T01:46:32.885Z,18.50
2019-02-24T01:49:03.014Z,18.40
2019-02-24T01:51:32.934Z,16.17
2019-02-24T01:54:03.105Z,15.33
2019-02-24T01:56:33.442Z,14.43
2019-02-24T01:59:04.291Z,13.80
2019-02-24T02:01:34.904Z,16.33
2019-02-24T02:04:04.440Z,17.47
2019-02-24T02:06:34.645Z,18.37
2019-02-24T02:09:05.615Z,19.13
2019-02-24T02:11:36.080Z,19.23
2019-02-24T02:14:06.368Z,17.93
2019-02-24T02:16:36.349Z,18.07
2019-02-24T02:19:06.333Z,18.37
2019-02-24T02:21:36.469Z,18.10
2019-02-24T02:24:18.536Z,17.97
2019-02-24T02:26:48.522Z,20.17
2019-02-24T02:29:18.465Z,20.17
2019-02-24T02:31:48.887Z,20.47
2019-02-24T02:34:19.115Z,20.03
2019-02-24T02:36:49.111Z,18.97
2019-02-24T02:39:19.328Z,19.43
2019-02-24T02:41:49.517Z,19.10
2019-02-24T02:44:19.982Z,17.17
2019-02-24T02:46:50.070Z,18.33
2019-02-24T02:49:21.005Z,16.97
2019-02-24T02:51:51.319Z,15.93
2019-02-24T02:54:21.632Z,20.00
2019-02-24T02:56:51.651Z,20.70
2019-02-24T02:59:22.049Z,20.23
2019-02-24T03:01:52.029Z,19.97
2019-02-24T03:04:22.384Z,21.53
2019-02-24T03:07:10.472Z,19.03
2019-02-24T03:09:40.490Z,18.17
2019-02-24T03:12:10.439Z,19.27
2019-02-24T03:14:40.408Z,20.20
2019-02-24T03:17:10.950Z,19.00
2019-02-24T03:19:41.393Z,19.57
2019-02-24T03:22:12.105Z,17.93
2019-02-24T03:24:42.131Z,20.33
2019-02-24T03:27:12.119Z,19.63
2019-02-24T03:29:42.540Z,20.37
2019-02-24T03:32:12.586Z,19.03
2019-02-24T03:34:42.703Z,18.80
2019-02-24T03:37:13.408Z,18.13
2019-02-24T03:39:43.533Z,20.40
2019-02-24T03:42:15.461Z,21.63
2019-02-24T03:44:45.655Z,20.80
2019-02-24T03:47:16.119Z,19.87
2019-02-24T03:49:46.102Z,19.63
2019-02-24T03:52:16.264Z,20.63
2019-02-24T03:54:46.321Z,20.17
2019-02-24T03:57:16.629Z,20.77
2019-02-24T03:59:47.027Z,19.33
2019-02-24T04:02:17.147Z,19.93
2019-02-24T04:04:47.357Z,22.60
2019-02-24T04:07:17.463Z,21.47
2019-02-24T04:09:47.406Z,21.57
2019-02-24T04:12:17.458Z,20.77
2019-02-24T04:14:47.858Z,20.00
2019-02-24T04:17:18.036Z,17.53
2019-02-24T04:19:48.221Z,17.23
2019-02-24T04:22:18.231Z,17.83
2019-02-24T04:24:48.333Z,17.00
2019-02-24T04:27:18.378Z,16.07
2019-02-24T04:29:48.764Z,14.77
2019-02-24T04:32:19.583Z,16.60
2019-02-24T04:34:49.525Z,15.57
2019-02-24T04:37:19.506Z,14.87
2019-02-24T04:39:50.156Z,15.43
2019-02-24T04:42:20.209Z,15.23
2019-02-24T04:44:50.750Z,16.10
2019-02-24T04:47:20.847Z,14.17
2019-02-24T04:49:51.505Z,14.33
2019-02-24T04:52:21.655Z,14.50
2019-02-24T04:54:51.667Z,15.93
2019-02-24T04:57:21.651Z,18.70
2019-02-24T04:59:52.137Z,18.30
2019-02-24T05:02:22.289Z,17.83
2019-02-24T05:04:52.392Z,17.63
2019-02-24T05:07:22.852Z,18.60
2019-02-24T05:09:52.848Z,18.80
2019-02-24T05:12:22.818Z,19.37
2019-02-24T05:14:53.456Z,17.50
2019-02-24T05:17:24.430Z,17.80
2019-02-24T05:19:54.485Z,18.03
2019-02-24T05:22:24.527Z,20.23
2019-02-24T05:24:55.303Z,18.33
2019-02-24T05:27:25.660Z,17.23
2019-02-24T05:29:55.744Z,15.57
2019-02-24T05:32:26.511Z,17.07
2019-02-24T05:34:56.847Z,19.77
2019-02-24T05:37:27.181Z,21.07
2019-02-24T05:39:57.515Z,20.13
2019-02-24T05:42:28.097Z,19.60
2019-02-24T05:44:58.581Z,18.60
2019-02-24T05:47:28.867Z,18.40
2019-02-24T05:49:59.833Z,17.43
2019-02-24T05:52:30.045Z,17.97
2019-02-24T05:55:01.822Z,18.13
2019-02-24T05:57:44.134Z,17.83
2019-02-24T06:00:14.845Z,18.47
2019-02-24T06:02:44.743Z,18.13
2019-02-24T06:05:14.727Z,16.60
2019-02-24T06:07:45.492Z,17.00
2019-02-24T06:10:15.501Z,18.27
2019-02-24T06:12:45.759Z,17.57
2019-02-24T06:15:15.876Z,15.53
2019-02-24T06:17:46.068Z,16.07
2019-02-24T06:20:16.152Z,17.17
2019-02-24T06:22:46.345Z,17.40
2019-02-24T06:25:17.037Z,15.90
2019-02-24T06:27:47.260Z,16.30
2019-02-24T06:30:17.642Z,16.30
2019-02-24T06:32:48.109Z,16.77
2019-02-24T06:35:18.291Z,16.77
2019-02-24T06:37:48.399Z,16.90
2019-02-24T06:40:18.503Z,15.80
2019-02-24T06:42:48.663Z,15.37
2019-02-24T06:45:18.667Z,13.70
2019-02-24T06:47:49.293Z,12.47
2019-02-24T06:50:19.482Z,13.30
2019-02-24T06:52:50.779Z,12.30
2019-02-24T06:55:20.908Z,12.70
2019-02-24T06:57:51.241Z,11.63
2019-02-24T07:00:21.602Z,12.37
2019-02-24T07:02:51.835Z,10.33
2019-02-24T07:05:22.416Z,11.37
2019-02-24T07:07:52.823Z,10.50
2019-02-24T07:10:23.171Z,9.77
2019-02-24T07:12:53.755Z,10.33
2019-02-24T07:15:24.010Z,8.77
2019-02-24T07:17:54.552Z,9.33
2019-02-24T07:20:24.659Z,9.60
2019-02-24T07:22:54.951Z,10.50
2019-02-24T07:25:26.415Z,10.97
2019-02-24T07:27:56.682Z,10.87
2019-02-24T07:30:27.011Z,12.03
2019-02-24T07:32:57.061Z,11.50
2019-02-24T07:35:27.759Z,11.43
2019-02-24T07:37:57.887Z,11.27
2019-02-24T07:40:29.732Z,11.63
2019-02-24T07:42:59.828Z,12.30
2019-02-24T07:45:30.007Z,13.87
2019-02-24T07:48:00.159Z,12.70
2019-02-24T07:50:30.199Z,12.23
2019-02-24T07:53:00.620Z,12.20
2019-02-24T07:55:30.869Z,11.63
2019-02-24T07:58:01.312Z,12.00
2019-02-24T08:00:32.490Z,12.10
2019-02-24T08:03:03.354Z,11.30
2019-02-24T08:05:33.498Z,10.53
2019-02-24T08:08:03.729Z,10.33
2019-02-24T08:10:33.930Z,11.07
2019-02-24T08:13:04.126Z,11.63
2019-02-24T08:15:34.775Z,11.30
2019-02-24T08:18:04.854Z,11.73
2019-02-24T08:20:35.177Z,10.60
2019-02-24T08:23:05.898Z,11.03
2019-02-24T08:25:36.057Z,10.40
2019-02-24T08:28:06.300Z,11.53
2019-02-24T08:30:41.489Z,11.08
2019-02-24T08:33:08.305Z,12.93
2019-02-24T08:35:38.601Z,11.20
2019-02-24T08:38:08.746Z,12.75
2019-02-24T08:40:38.818Z,12.50
2019-02-24T08:43:09.378Z,12.50
2019-02-24T08:45:39.685Z,12.18
2019-02-24T08:48:10.107Z,12.18
2019-02-24T08:50:41.008Z,12.90
2019-02-24T08:53:11.279Z,11.73
2019-02-24T08:55:41.969Z,12.13
2019-02-24T08:58:12.615Z,12.47
2019-02-24T09:00:50.736Z,12.47
2019-02-24T09:03:15.751Z,12.33
2019-02-24T09:05:45.799Z,11.75
2019-02-24T09:08:16.326Z,11.57
2019-02-24T09:10:47.026Z,11.80
2019-02-24T09:13:16.983Z,12.00
2019-02-24T09:15:47.254Z,11.43
2019-02-24T09:18:17.362Z,12.30
2019-02-24T09:20:47.573Z,10.85
2019-02-24T09:23:18.102Z,11.05
2019-02-24T09:25:48.298Z,9.93
2019-02-24T09:28:18.770Z,10.25
2019-02-24T09:30:48.721Z,9.38
2019-02-24T09:33:19.125Z,10.28
2019-02-24T09:35:51.605Z,10.63
2019-02-24T09:38:21.591Z,9.85
2019-02-24T09:40:51.498Z,9.80
2019-02-24T09:43:21.805Z,8.63
2019-02-24T09:45:51.860Z,9.18
2019-02-24T09:48:22.890Z,8.80
2019-02-24T09:50:53.432Z,7.40
2019-02-24T09:53:24.237Z,7.20
2019-02-24T09:55:54.476Z,7.85
2019-02-24T09:58:24.752Z,7.05
2019-02-24T10:00:55.285Z,7.00
2019-02-24T10:03:25.284Z,7.72
2019-02-24T10:05:55.831Z,6.55
2019-02-24T10:08:26.194Z,6.58
2019-02-24T10:10:56.342Z,6.30
2019-02-24T10:13:26.442Z,6.47
2019-02-24T10:15:56.973Z,6.72
2019-02-24T10:18:27.242Z,6.62
2019-02-24T10:20:57.358Z,7.08
2019-02-24T10:23:27.777Z,6.78
2019-02-24T10:25:57.804Z,7.03
2019-02-24T10:28:27.769Z,7.17
2019-02-24T10:30:58.304Z,7.53
2019-02-24T10:33:28.625Z,6.30
2019-02-24T10:35:58.811Z,6.85
2019-02-24T10:38:28.982Z,7.08
2019-02-24T10:40:59.237Z,6.33
2019-02-24T10:43:29.810Z,6.80
2019-02-24T10:45:59.866Z,7.30
2019-02-24T10:48:30.212Z,6.65
2019-02-24T10:51:00.620Z,6.05
2019-02-24T10:53:30.664Z,6.90
2019-02-24T10:56:01.361Z,6.53
2019-02-24T10:58:34.804Z,5.97
2019-02-24T11:01:03.361Z,6.03
2019-02-24T11:03:33.555Z,6.03
2019-02-24T11:06:03.969Z,5.55
2019-02-24T11:08:34.020Z,5.90
2019-02-24T11:11:04.117Z,4.78
2019-02-24T11:13:34.188Z,4.60
2019-02-24T11:16:04.314Z,4.92
2019-02-24T11:18:34.640Z,4.35
2019-02-24T11:21:04.821Z,5.10
2019-02-24T11:23:35.102Z,5.15
2019-02-24T11:26:05.579Z,5.03
2019-02-24T11:28:36.446Z,5.37
2019-02-24T11:31:06.553Z,5.15
2019-02-24T11:33:37.266Z,5.53
2019-02-24T11:36:07.598Z,5.40
2019-02-24T11:38:38.026Z,5.80
2019-02-24T11:41:08.280Z,5.47
2019-02-24T11:43:38.440Z,5.80
2019-02-24T11:46:09.037Z,6.40
2019-02-24T11:48:39.912Z,5.40
2019-02-24T11:51:10.008Z,5.90
2019-02-24T11:53:40.620Z,5.47
2019-02-24T11:56:10.969Z,6.10
2019-02-24T11:58:41.431Z,5.67
2019-02-24T12:01:11.719Z,5.73
2019-02-24T12:03:41.937Z,6.17
2019-02-24T12:06:12.136Z,5.60
2019-02-24T12:08:42.281Z,5.83
2019-02-24T12:11:12.411Z,5.60
2019-02-24T12:13:42.846Z,5.07
2019-02-24T12:16:13.627Z,5.87
2019-02-24T12:18:43.939Z,5.93
2019-02-24T12:21:14.398Z,5.83
2019-02-24T12:23:44.797Z,5.83
2019-02-24T12:26:14.764Z,5.70
2019-02-24T12:28:45.410Z,5.23
2019-02-24T12:31:16.658Z,6.23
2019-02-24T12:33:46.788Z,5.97
2019-02-24T12:36:16.933Z,5.63
2019-02-24T12:38:47.604Z,6.70
2019-02-24T12:41:18.097Z,6.40
2019-02-24T12:43:48.216Z,6.20
2019-02-24T12:46:18.460Z,5.97
2019-02-24T12:48:48.745Z,5.70
2019-02-24T12:51:19.100Z,5.87
2019-02-24T12:53:49.325Z,5.33
2019-02-24T12:56:19.671Z,5.13
2019-02-24T12:58:49.977Z,5.83
2019-02-24T13:01:20.351Z,5.30
2019-02-24T13:03:51.049Z,4.83
2019-02-24T13:06:21.210Z,5.63
2019-02-24T13:08:51.485Z,5.47
2019-02-24T13:11:21.979Z,5.50
2019-02-24T13:13:52.069Z,5.90
2019-02-24T13:16:22.067Z,4.90
2019-02-24T13:18:52.706Z,5.67
2019-02-24T13:21:22.911Z,5.27
2019-02-24T13:23:53.393Z,5.33
2019-02-24T13:26:23.432Z,5.17
2019-02-24T13:28:54.183Z,5.87
2019-02-24T13:31:24.781Z,5.43
2019-02-24T13:33:55.106Z,5.60
2019-02-24T13:36:25.216Z,5.07
2019-02-24T13:38:55.641Z,5.60
2019-02-24T13:41:25.652Z,5.97
2019-02-24T13:43:55.822Z,5.30
2019-02-24T13:46:25.824Z,6.00
2019-02-24T13:48:56.062Z,5.20
2019-02-24T13:51:26.325Z,5.53
2019-02-24T13:53:56.730Z,5.47
2019-02-24T13:56:27.087Z,5.53
2019-02-24T13:58:56.989Z,5.47
2019-02-24T14:01:26.926Z,5.50
2019-02-24T14:03:57.688Z,5.20
2019-02-24T14:06:27.721Z,5.20
2019-02-24T14:08:58.059Z,5.37
2019-02-24T14:11:28.225Z,5.33
2019-02-24T14:13:58.884Z,4.83
2019-02-24T14:16:28.948Z,4.43
2019-02-24T14:18:59.006Z,5.10
2019-02-24T14:21:29.533Z,4.03
2019-02-24T14:24:00.002Z,4.80
2019-02-24T14:26:30.113Z,4.23
2019-02-24T14:29:00.334Z,4.57
2019-02-24T14:31:30.243Z,4.50
2019-02-24T14:34:00.312Z,4.37
2019-02-24T14:36:30.753Z,4.40
2019-02-24T14:39:01.049Z,4.20
2019-02-24T14:41:31.320Z,4.10
2019-02-24T14:44:01.471Z,3.53
2019-02-24T14:46:31.711Z,4.37
2019-02-24T14:49:02.300Z,4.57
2019-02-24T14:51:35.632Z,3.83
2019-02-24T14:54:06.012Z,4.07
2019-02-24T14:56:36.175Z,4.43
2019-02-24T14:59:06.235Z,4.00
2019-02-24T15:01:36.409Z,4.23
2019-02-24T15:04:06.693Z,4.67
2019-02-24T15:06:36.912Z,4.37
2019-02-24T15:09:08.302Z,3.80
2019-02-24T15:11:38.656Z,4.60
2019-02-24T15:14:08.966Z,4.47
2019-02-24T15:16:39.106Z,4.40
2019-02-24T15:19:09.055Z,5.10
2019-02-24T15:21:39.264Z,5.07
2019-02-24T15:24:09.652Z,5.47
2019-02-24T15:26:40.233Z,5.10
2019-02-24T15:29:10.453Z,5.27
2019-02-24T15:31:40.464Z,5.10
2019-02-24T15:34:11.387Z,4.83
2019-02-24T15:36:41.345Z,5.20
2019-02-24T15:39:11.543Z,5.03
2019-02-24T15:41:42.287Z,5.30
2019-02-24T15:44:12.461Z,5.17
2019-02-24T15:46:42.822Z,4.90
2019-02-24T15:49:12.836Z,4.30
2019-02-24T15:51:42.966Z,3.87
2019-02-24T15:54:13.071Z,4.33
2019-02-24T15:56:43.151Z,4.50
2019-02-24T15:59:13.240Z,6.03
2019-02-24T16:01:43.587Z,6.27
2019-02-24T16:04:13.829Z,5.43
2019-02-24T16:06:44.332Z,4.90
2019-02-24T16:09:14.497Z,5.13
2019-02-24T16:11:44.438Z,4.33
2019-02-24T16:14:14.760Z,4.50
2019-02-24T16:16:45.270Z,4.87
2019-02-24T16:19:15.703Z,4.70
2019-02-24T16:21:45.823Z,4.60
2019-02-24T16:24:15.738Z,5.00
2019-02-24T16:26:45.674Z,4.13
2019-02-24T16:29:16.299Z,5.13
2019-02-24T16:31:46.600Z,4.70
2019-02-24T16:34:17.260Z,5.20
2019-02-24T16:36:47.309Z,4.47
2019-02-24T16:39:17.990Z,4.37
2019-02-24T16:41:48.156Z,4.10
2019-02-24T16:44:20.314Z,4.53
2019-02-24T16:46:50.417Z,4.67
2019-02-24T16:49:21.129Z,4.20
2019-02-24T16:51:52.111Z,4.43
2019-02-24T16:54:22.754Z,3.80
2019-02-24T16:56:53.622Z,3.80
2019-02-24T16:59:24.013Z,4.53
2019-02-24T17:01:54.171Z,4.20
2019-02-24T17:04:25.043Z,3.93
2019-02-24T17:06:55.400Z,4.40
2019-02-24T17:09:25.559Z,5.30
2019-02-24T17:11:56.024Z,8.63
2019-02-24T17:14:26.714Z,9.67
2019-02-24T17:17:01.512Z,9.77
2019-02-24T17:19:28.960Z,8.83
2019-02-24T17:21:59.212Z,9.50
2019-02-24T17:24:29.502Z,9.23
2019-02-24T17:26:59.625Z,7.63
2019-02-24T17:29:29.785Z,5.87
2019-02-24T17:32:00.204Z,5.53
2019-02-24T17:34:30.297Z,4.70
2019-02-24T17:37:00.435Z,4.77
2019-02-24T17:39:31.277Z,4.43
2019-02-24T17:42:01.812Z,5.03
2019-02-24T17:44:31.942Z,4.90
2019-02-24T17:47:02.299Z,5.70
2019-02-24T17:49:32.524Z,5.60
2019-02-24T17:52:02.501Z,5.57
2019-02-24T17:54:32.603Z,7.23
2019-02-24T17:57:02.957Z,8.43
2019-02-24T17:59:40.195Z,7.60
2019-02-24T18:02:05.483Z,6.43
2019-02-24T18:04:36.742Z,9.00
2019-02-24T18:07:07.389Z,8.60
2019-02-24T18:09:37.804Z,7.23
2019-02-24T18:12:08.930Z,7.00
2019-02-24T18:14:39.145Z,11.83
2019-02-24T18:17:09.890Z,14.00
2019-02-24T18:19:40.037Z,11.07
2019-02-24T18:22:10.371Z,11.43
2019-02-24T18:24:40.595Z,9.37
2019-02-24T18:27:11.583Z,8.47
2019-02-24T18:29:41.761Z,6.33
2019-02-24T18:32:12.397Z,5.20
2019-02-24T18:34:42.352Z,5.30
2019-02-24T18:37:12.352Z,5.73
2019-02-24T18:39:42.496Z,5.80
2019-02-24T18:42:12.851Z,4.90
2019-02-24T18:44:42.964Z,5.30
2019-02-24T18:47:13.008Z,5.30
2019-02-24T18:49:42.962Z,5.17
2019-02-24T18:52:13.748Z,5.23
2019-02-24T18:54:43.994Z,5.17
2019-02-24T18:57:15.862Z,4.97
2019-02-24T18:59:46.131Z,6.00
2019-02-24T19:02:16.127Z,5.70
2019-02-24T19:04:46.335Z,5.73
2019-02-24T19:07:16.391Z,5.90
2019-02-24T19:09:46.363Z,6.50
2019-02-24T19:12:16.795Z,5.60
2019-02-24T19:14:46.879Z,6.13
2019-02-24T19:17:17.105Z,6.33
2019-02-24T19:19:47.356Z,6.50
2019-02-24T19:22:17.547Z,6.13
2019-02-24T19:24:47.476Z,5.37
2019-02-24T19:27:17.829Z,5.70
2019-02-24T19:29:47.980Z,7.27
2019-02-24T19:32:18.561Z,6.47
2019-02-24T19:34:49.233Z,5.40
2019-02-24T19:37:19.997Z,5.40
2019-02-24T19:39:50.090Z,6.20
2019-02-24T19:42:21.153Z,5.80
2019-02-24T19:44:51.285Z,5.60
2019-02-24T19:47:21.292Z,6.23
2019-02-24T19:49:51.347Z,6.17
2019-02-24T19:52:21.381Z,6.03
2019-02-24T19:54:51.995Z,6.57
2019-02-24T19:57:22.060Z,7.30
2019-02-24T19:59:52.182Z,6.60
2019-02-24T20:02:22.394Z,7.80
2019-02-24T20:04:52.607Z,7.40
2019-02-24T20:07:22.722Z,6.43
2019-02-24T20:09:53.306Z,6.57
2019-02-24T20:12:23.713Z,7.13
2019-02-24T20:14:54.807Z,6.43
2019-02-24T20:17:24.797Z,6.20
2019-02-24T20:19:54.909Z,6.53
2019-02-24T20:22:25.038Z,6.67
2019-02-24T20:24:55.466Z,7.27
2019-02-24T20:27:26.220Z,5.93
2019-02-24T20:29:56.725Z,6.33
2019-02-24T20:32:26.775Z,5.97
2019-02-24T20:34:57.141Z,6.93
2019-02-24T20:37:27.190Z,7.73
2019-02-24T20:39:58.135Z,8.40
2019-02-24T20:42:28.500Z,7.30
2019-02-24T20:44:58.803Z,8.23
2019-02-24T20:47:28.895Z,8.20
2019-02-24T20:50:02.910Z,9.87
2019-02-24T20:52:33.114Z,9.53
2019-02-24T20:55:03.183Z,8.23
2019-02-24T20:57:33.763Z,7.27
2019-02-24T21:00:04.239Z,7.00
2019-02-24T21:02:34.534Z,7.00
2019-02-24T21:05:05.572Z,7.63
2019-02-24T21:07:35.829Z,7.33
2019-02-24T21:10:06.657Z,8.77
2019-02-24T21:12:37.209Z,8.10
2019-02-24T21:15:08.506Z,8.27
2019-02-24T21:17:39.516Z,7.97
2019-02-24T21:20:13.084Z,9.07
2019-02-24T21:22:43.410Z,9.33
2019-02-24T21:25:13.898Z,8.30
2019-02-24T21:27:44.039Z,9.77
2019-02-24T21:30:15.740Z,10.27
2019-02-24T21:32:45.980Z,9.03
2019-02-24T21:35:17.348Z,8.30
2019-02-24T21:37:47.975Z,9.27
2019-02-24T21:40:18.248Z,8.73
2019-02-24T21:42:48.439Z,7.77
2019-02-24T21:45:19.374Z,8.00
2019-02-24T21:47:49.737Z,9.83
2019-02-24T21:50:19.914Z,9.23
2019-02-24T21:52:50.015Z,8.40
2019-02-24T21:55:20.320Z,8.27
2019-02-24T21:57:50.544Z,8.43
2019-02-24T22:00:21.602Z,7.80
2019-02-24T22:02:52.389Z,6.73
2019-02-24T22:05:22.719Z,10.20
2019-02-24T22:07:55.580Z,10.17
2019-02-24T22:10:25.602Z,8.93
2019-02-24T22:12:55.710Z,9.40
2019-02-24T22:15:25.849Z,9.40
2019-02-24T22:17:56.567Z,8.87
2019-02-24T22:20:26.926Z,10.33
2019-02-24T22:22:57.006Z,9.57
2019-02-24T22:25:27.110Z,9.27
2019-02-24T22:27:57.640Z,8.57
2019-02-24T22:30:27.787Z,8.40
2019-02-24T22:32:58.433Z,8.43
2019-02-24T22:35:29.009Z,8.47
2019-02-24T22:37:59.115Z,9.13
2019-02-24T22:40:29.771Z,9.20
2019-02-24T22:42:59.989Z,9.37
2019-02-24T22:45:30.530Z,8.80
2019-02-24T22:48:00.683Z,8.77
2019-02-24T22:50:30.666Z,8.43
2019-02-24T22:53:01.365Z,8.90
2019-02-24T22:55:31.468Z,9.97
2019-02-24T22:58:02.337Z,10.53
2019-02-24T23:01:00.411Z,11.27
2019-02-24T23:03:33.347Z,10.03
2019-02-24T23:06:03.581Z,10.20
2019-02-24T23:08:33.606Z,10.27
2019-02-24T23:11:04.330Z,10.27
2019-02-24T23:13:34.717Z,10.17
2019-02-24T23:16:04.825Z,9.27
2019-02-24T23:18:34.953Z,10.40
2019-02-24T23:21:05.041Z,11.17
2019-02-24T23:23:35.209Z,10.87
2019-02-24T23:26:05.409Z,10.90
2019-02-24T23:28:35.545Z,10.67
2019-02-24T23:31:05.580Z,11.60
2019-02-24T23:33:36.373Z,13.50
2019-02-24T23:36:06.501Z,10.90
2019-02-24T23:38:37.600Z,11.93
2019-02-24T23:41:07.658Z,12.80
2019-02-24T23:43:38.245Z,12.63
2019-02-24T23:46:08.734Z,10.87
2019-02-24T23:48:39.002Z,10.73
2019-02-24T23:51:09.561Z,9.97
2019-02-24T23:53:41.580Z,10.20
2019-02-24T23:56:12.282Z,9.37
2019-02-24T23:58:42.416Z,10.53
